sensor_id;sensor_type;location;lat;lon;timestamp;temperature;humidity
15765;DHT22;7983;50.744;7.086;2023-11-19T00:00:56;12.60;99.90
15765;DHT22;7983;50.744;7.086;2023-11-19T00:03:46;12.60;99.90
15765;DHT22;7983;50.744;7.086;2023-11-19T00:06:11;12.60;99.90
15765;DHT22;7983;50.744;7.086;2023-11-19T00:08:39;12.60;99.90
15765;DHT22;7983;50.744;7.086;2023-11-19T00:11:11;12.60;99.90
15765;DHT22;7983;50.744;7.086;2023-11-19T00:13:40;12.60;99.90
15765;DHT22;7983;50.744;7.086;2023-11-19T00:16:09;12.60;99.90
15765;DHT22;7983;50.744;7.086;2023-11-19T00:18:35;12.60;99.90
15765;DHT22;7983;50.744;7.086;2023-11-19T00:21:01;12.60;99.90
15765;DHT22;7983;50.744;7.086;2023-11-19T00:23:30;12.60;99.90
15765;DHT22;7983;50.744;7.086;2023-11-19T00:25:58;12.50;99.90
15765;DHT22;7983;50.744;7.086;2023-11-19T00:28:23;12.50;99.90
15765;DHT22;7983;50.744;7.086;2023-11-19T00:30:58;12.50;99.90
15765;DHT22;7983;50.744;7.086;2023-11-19T00:33:31;12.50;99.90
15765;DHT22;7983;50.744;7.086;2023-11-19T00:35:56;12.50;99.90
15765;DHT22;7983;50.744;7.086;2023-11-19T00:38:22;12.50;99.90
15765;DHT22;7983;50.744;7.086;2023-11-19T00:40:48;12.50;99.90
15765;DHT22;7983;50.744;7.086;2023-11-19T00:43:13;12.50;99.90
15765;DHT22;7983;50.744;7.086;2023-11-19T00:45:41;12.40;99.90
15765;DHT22;7983;50.744;7.086;2023-11-19T00:48:09;12.50;99.90
15765;DHT22;7983;50.744;7.086;2023-11-19T00:50:35;12.40;99.90
15765;DHT22;7983;50.744;7.086;2023-11-19T00:53:03;12.50;99.90
15765;DHT22;7983;50.744;7.086;2023-11-19T00:55:29;12.50;99.90
15765;DHT22;7983;50.744;7.086;2023-11-19T00:58:00;12.50;99.90
15765;DHT22;7983;50.744;7.086;2023-11-19T01:00:25;12.50;99.90
15765;DHT22;7983;50.744;7.086;2023-11-19T01:02:55;12.50;99.90
15765;DHT22;7983;50.744;7.086;2023-11-19T01:05:23;12.50;99.90
15765;DHT22;7983;50.744;7.086;2023-11-19T01:07:49;12.60;99.90
15765;DHT22;7983;50.744;7.086;2023-11-19T01:10:15;12.60;99.90
15765;DHT22;7983;50.744;7.086;2023-11-19T01:12:44;12.60;99.90
15765;DHT22;7983;50.744;7.086;2023-11-19T01:15:09;12.60;99.90
15765;DHT22;7983;50.744;7.086;2023-11-19T01:17:37;12.50;99.90
15765;DHT22;7983;50.744;7.086;2023-11-19T01:20:06;12.60;99.90
15765;DHT22;7983;50.744;7.086;2023-11-19T01:22:32;12.60;99.90
15765;DHT22;7983;50.744;7.086;2023-11-19T01:24:58;12.60;99.90
15765;DHT22;7983;50.744;7.086;2023-11-19T01:27:26;12.60;99.90
15765;DHT22;7983;50.744;7.086;2023-11-19T01:29:52;12.60;99.90
15765;DHT22;7983;50.744;7.086;2023-11-19T01:32:17;12.70;99.90
15765;DHT22;7983;50.744;7.086;2023-11-19T01:34:45;12.70;99.90
15765;DHT22;7983;50.744;7.086;2023-11-19T01:37:15;12.70;99.90
15765;DHT22;7983;50.744;7.086;2023-11-19T01:39:44;12.80;99.90
15765;DHT22;7983;50.744;7.086;2023-11-19T01:42:10;12.80;99.90
15765;DHT22;7983;50.744;7.086;2023-11-19T01:44:39;12.90;99.90
15765;DHT22;7983;50.744;7.086;2023-11-19T01:47:06;13.00;99.90
15765;DHT22;7983;50.744;7.086;2023-11-19T01:49:32;13.00;99.90
15765;DHT22;7983;50.744;7.086;2023-11-19T01:51:58;13.00;99.90
15765;DHT22;7983;50.744;7.086;2023-11-19T01:54:25;13.10;99.90
15765;DHT22;7983;50.744;7.086;2023-11-19T01:56:55;13.20;99.90
15765;DHT22;7983;50.744;7.086;2023-11-19T01:59:22;13.20;99.90
15765;DHT22;7983;50.744;7.086;2023-11-19T02:01:53;13.30;99.90
15765;DHT22;7983;50.744;7.086;2023-11-19T02:04:19;13.30;99.90
15765;DHT22;7983;50.744;7.086;2023-11-19T02:06:48;13.40;99.90
15765;DHT22;7983;50.744;7.086;2023-11-19T02:09:15;13.40;99.90
15765;DHT22;7983;50.744;7.086;2023-11-19T02:11:47;13.40;99.90
15765;DHT22;7983;50.744;7.086;2023-11-19T02:14:25;13.40;99.90
15765;DHT22;7983;50.744;7.086;2023-11-19T02:16:52;13.50;99.90
15765;DHT22;7983;50.744;7.086;2023-11-19T02:19:23;13.60;99.90
15765;DHT22;7983;50.744;7.086;2023-11-19T02:21:48;13.60;99.90
15765;DHT22;7983;50.744;7.086;2023-11-19T02:24:23;13.60;99.90
15765;DHT22;7983;50.744;7.086;2023-11-19T02:27:10;13.70;99.90
15765;DHT22;7983;50.744;7.086;2023-11-19T02:29:41;13.70;99.90
15765;DHT22;7983;50.744;7.086;2023-11-19T02:32:09;13.70;99.90
15765;DHT22;7983;50.744;7.086;2023-11-19T02:34:34;13.70;99.90
15765;DHT22;7983;50.744;7.086;2023-11-19T02:37:00;13.70;99.90
15765;DHT22;7983;50.744;7.086;2023-11-19T02:39:26;13.70;99.90
15765;DHT22;7983;50.744;7.086;2023-11-19T02:41:52;13.70;99.90
15765;DHT22;7983;50.744;7.086;2023-11-19T02:44:20;13.70;99.90
15765;DHT22;7983;50.744;7.086;2023-11-19T02:46:45;13.70;99.90
15765;DHT22;7983;50.744;7.086;2023-11-19T02:49:14;13.70;99.90
15765;DHT22;7983;50.744;7.086;2023-11-19T02:51:40;13.60;99.90
15765;DHT22;7983;50.744;7.086;2023-11-19T02:54:06;13.70;99.90
15765;DHT22;7983;50.744;7.086;2023-11-19T02:56:32;13.70;99.90
15765;DHT22;7983;50.744;7.086;2023-11-19T02:59:04;13.70;99.90
15765;DHT22;7983;50.744;7.086;2023-11-19T03:01:37;13.70;99.90
15765;DHT22;7983;50.744;7.086;2023-11-19T03:04:03;13.70;99.90
15765;DHT22;7983;50.744;7.086;2023-11-19T03:06:29;13.60;99.90
15765;DHT22;7983;50.744;7.086;2023-11-19T03:08:55;13.60;99.90
15765;DHT22;7983;50.744;7.086;2023-11-19T03:11:21;13.70;99.90
15765;DHT22;7983;50.744;7.086;2023-11-19T03:13:46;13.60;99.90
15765;DHT22;7983;50.744;7.086;2023-11-19T03:16:12;13.60;99.90
15765;DHT22;7983;50.744;7.086;2023-11-19T03:18:38;13.60;99.90
15765;DHT22;7983;50.744;7.086;2023-11-19T03:21:06;13.60;99.90
15765;DHT22;7983;50.744;7.086;2023-11-19T03:23:33;13.60;99.90
15765;DHT22;7983;50.744;7.086;2023-11-19T03:26:01;13.60;99.90
15765;DHT22;7983;50.744;7.086;2023-11-19T03:28:35;13.60;99.90
15765;DHT22;7983;50.744;7.086;2023-11-19T03:31:08;13.60;99.90
15765;DHT22;7983;50.744;7.086;2023-11-19T03:33:34;13.60;99.90
15765;DHT22;7983;50.744;7.086;2023-11-19T03:38:27;13.60;99.90
15765;DHT22;7983;50.744;7.086;2023-11-19T03:40:53;13.70;99.90
15765;DHT22;7983;50.744;7.086;2023-11-19T03:43:18;13.60;99.90
15765;DHT22;7983;50.744;7.086;2023-11-19T03:45:46;13.60;99.90
15765;DHT22;7983;50.744;7.086;2023-11-19T03:48:14;13.70;99.90
15765;DHT22;7983;50.744;7.086;2023-11-19T03:50:46;13.70;99.90
15765;DHT22;7983;50.744;7.086;2023-11-19T03:53:12;13.70;99.90
15765;DHT22;7983;50.744;7.086;2023-11-19T03:55:42;13.80;99.90
15765;DHT22;7983;50.744;7.086;2023-11-19T03:58:10;13.90;99.90
15765;DHT22;7983;50.744;7.086;2023-11-19T04:00:40;13.90;99.90
15765;DHT22;7983;50.744;7.086;2023-11-19T04:03:06;14.00;99.90
15765;DHT22;7983;50.744;7.086;2023-11-19T04:05:34;14.10;99.90
15765;DHT22;7983;50.744;7.086;2023-11-19T04:08:00;14.20;99.90
15765;DHT22;7983;50.744;7.086;2023-11-19T04:10:25;14.30;99.90
15765;DHT22;7983;50.744;7.086;2023-11-19T04:12:52;14.40;99.90
15765;DHT22;7983;50.744;7.086;2023-11-19T04:15:18;14.50;99.90
15765;DHT22;7983;50.744;7.086;2023-11-19T04:17:44;14.50;99.90
15765;DHT22;7983;50.744;7.086;2023-11-19T04:20:12;14.60;99.90
15765;DHT22;7983;50.744;7.086;2023-11-19T04:22:39;14.70;99.90
15765;DHT22;7983;50.744;7.086;2023-11-19T04:25:05;14.70;99.90
15765;DHT22;7983;50.744;7.086;2023-11-19T04:27:33;14.70;99.90
15765;DHT22;7983;50.744;7.086;2023-11-19T04:30:01;14.70;99.90
15765;DHT22;7983;50.744;7.086;2023-11-19T04:32:27;14.70;99.90
15765;DHT22;7983;50.744;7.086;2023-11-19T04:34:55;14.70;99.90
15765;DHT22;7983;50.744;7.086;2023-11-19T04:37:23;14.70;99.90
15765;DHT22;7983;50.744;7.086;2023-11-19T04:39:49;14.80;99.90
15765;DHT22;7983;50.744;7.086;2023-11-19T04:42:19;14.70;99.90
15765;DHT22;7983;50.744;7.086;2023-11-19T04:44:47;14.70;99.90
15765;DHT22;7983;50.744;7.086;2023-11-19T04:47:17;14.70;99.90
15765;DHT22;7983;50.744;7.086;2023-11-19T04:49:43;14.70;99.90
15765;DHT22;7983;50.744;7.086;2023-11-19T04:52:08;14.70;99.90
15765;DHT22;7983;50.744;7.086;2023-11-19T04:54:41;14.70;99.90
15765;DHT22;7983;50.744;7.086;2023-11-19T04:57:09;14.70;99.90
15765;DHT22;7983;50.744;7.086;2023-11-19T04:59:39;14.70;99.90
15765;DHT22;7983;50.744;7.086;2023-11-19T05:02:05;14.70;99.90
15765;DHT22;7983;50.744;7.086;2023-11-19T05:04:33;14.70;99.90
15765;DHT22;7983;50.744;7.086;2023-11-19T05:06:59;14.70;99.90
15765;DHT22;7983;50.744;7.086;2023-11-19T05:09:27;14.80;99.90
15765;DHT22;7983;50.744;7.086;2023-11-19T05:11:52;14.70;99.90
15765;DHT22;7983;50.744;7.086;2023-11-19T05:14:21;14.80;99.90
15765;DHT22;7983;50.744;7.086;2023-11-19T05:16:50;14.70;99.90
15765;DHT22;7983;50.744;7.086;2023-11-19T05:19:15;14.70;99.90
15765;DHT22;7983;50.744;7.086;2023-11-19T05:21:44;14.80;99.90
15765;DHT22;7983;50.744;7.086;2023-11-19T05:24:12;14.70;99.90
15765;DHT22;7983;50.744;7.086;2023-11-19T05:26:41;14.70;99.90
15765;DHT22;7983;50.744;7.086;2023-11-19T05:29:06;14.70;99.90
15765;DHT22;7983;50.744;7.086;2023-11-19T05:31:32;14.70;99.90
15765;DHT22;7983;50.744;7.086;2023-11-19T05:33:57;14.70;99.90
15765;DHT22;7983;50.744;7.086;2023-11-19T05:36:23;14.70;99.90
15765;DHT22;7983;50.744;7.086;2023-11-19T05:38:49;14.60;99.90
15765;DHT22;7983;50.744;7.086;2023-11-19T05:41:14;14.60;99.90
15765;DHT22;7983;50.744;7.086;2023-11-19T05:43:40;14.60;99.90
15765;DHT22;7983;50.744;7.086;2023-11-19T05:46:08;14.60;99.90
15765;DHT22;7983;50.744;7.086;2023-11-19T05:48:34;14.60;99.90
15765;DHT22;7983;50.744;7.086;2023-11-19T05:51:03;14.50;99.90
15765;DHT22;7983;50.744;7.086;2023-11-19T05:53:31;14.60;99.90
15765;DHT22;7983;50.744;7.086;2023-11-19T05:55:59;14.50;99.90
15765;DHT22;7983;50.744;7.086;2023-11-19T05:58:29;14.50;99.90
15765;DHT22;7983;50.744;7.086;2023-11-19T06:00:56;14.50;99.90
15765;DHT22;7983;50.744;7.086;2023-11-19T06:03:24;14.50;99.90
15765;DHT22;7983;50.744;7.086;2023-11-19T06:05:52;14.50;99.90
15765;DHT22;7983;50.744;7.086;2023-11-19T06:08:20;14.50;99.90
15765;DHT22;7983;50.744;7.086;2023-11-19T06:10:48;14.50;99.90
15765;DHT22;7983;50.744;7.086;2023-11-19T06:13:16;14.50;99.90
15765;DHT22;7983;50.744;7.086;2023-11-19T06:15:44;14.50;99.90
15765;DHT22;7983;50.744;7.086;2023-11-19T06:18:10;14.60;99.90
15765;DHT22;7983;50.744;7.086;2023-11-19T06:20:40;14.60;99.90
15765;DHT22;7983;50.744;7.086;2023-11-19T06:23:06;14.60;99.90
15765;DHT22;7983;50.744;7.086;2023-11-19T06:25:32;14.60;99.90
15765;DHT22;7983;50.744;7.086;2023-11-19T06:27:58;14.60;99.90
15765;DHT22;7983;50.744;7.086;2023-11-19T06:30:26;14.70;99.90
15765;DHT22;7983;50.744;7.086;2023-11-19T06:32:54;14.70;99.90
15765;DHT22;7983;50.744;7.086;2023-11-19T06:35:19;14.60;99.90
15765;DHT22;7983;50.744;7.086;2023-11-19T06:37:45;14.60;99.90
15765;DHT22;7983;50.744;7.086;2023-11-19T06:40:11;14.70;99.90
15765;DHT22;7983;50.744;7.086;2023-11-19T06:42:43;14.60;99.90
15765;DHT22;7983;50.744;7.086;2023-11-19T06:45:11;14.60;99.90
15765;DHT22;7983;50.744;7.086;2023-11-19T06:47:39;14.60;99.90
15765;DHT22;7983;50.744;7.086;2023-11-19T06:50:06;14.60;99.90
15765;DHT22;7983;50.744;7.086;2023-11-19T06:52:32;14.60;99.90
15765;DHT22;7983;50.744;7.086;2023-11-19T06:54:59;14.60;99.90
15765;DHT22;7983;50.744;7.086;2023-11-19T06:57:27;14.60;99.90
15765;DHT22;7983;50.744;7.086;2023-11-19T06:59:54;14.60;99.90
15765;DHT22;7983;50.744;7.086;2023-11-19T07:02:20;14.60;99.90
15765;DHT22;7983;50.744;7.086;2023-11-19T07:04:48;14.50;99.90
15765;DHT22;7983;50.744;7.086;2023-11-19T07:07:16;14.50;99.90
15765;DHT22;7983;50.744;7.086;2023-11-19T07:09:41;14.50;99.90
15765;DHT22;7983;50.744;7.086;2023-11-19T07:12:10;14.50;99.90
15765;DHT22;7983;50.744;7.086;2023-11-19T07:14:36;14.50;99.90
15765;DHT22;7983;50.744;7.086;2023-11-19T07:17:04;14.40;99.90
15765;DHT22;7983;50.744;7.086;2023-11-19T07:19:29;14.50;99.90
15765;DHT22;7983;50.744;7.086;2023-11-19T07:21:55;14.50;99.90
15765;DHT22;7983;50.744;7.086;2023-11-19T07:24:23;14.40;99.90
15765;DHT22;7983;50.744;7.086;2023-11-19T07:26:48;14.40;99.90
15765;DHT22;7983;50.744;7.086;2023-11-19T07:29:17;14.40;99.90
15765;DHT22;7983;50.744;7.086;2023-11-19T07:31:43;14.40;99.90
15765;DHT22;7983;50.744;7.086;2023-11-19T07:34:14;14.40;99.90
15765;DHT22;7983;50.744;7.086;2023-11-19T07:36:39;14.30;99.90
15765;DHT22;7983;50.744;7.086;2023-11-19T07:39:07;14.30;99.90
15765;DHT22;7983;50.744;7.086;2023-11-19T07:41:33;14.30;99.90
15765;DHT22;7983;50.744;7.086;2023-11-19T07:44:00;14.30;99.90
15765;DHT22;7983;50.744;7.086;2023-11-19T07:46:27;14.30;99.90
15765;DHT22;7983;50.744;7.086;2023-11-19T07:48:53;14.30;99.90
15765;DHT22;7983;50.744;7.086;2023-11-19T07:51:19;14.30;99.90
15765;DHT22;7983;50.744;7.086;2023-11-19T07:53:44;14.40;99.90
15765;DHT22;7983;50.744;7.086;2023-11-19T07:56:15;14.40;99.90
15765;DHT22;7983;50.744;7.086;2023-11-19T07:58:40;14.40;99.90
15765;DHT22;7983;50.744;7.086;2023-11-19T08:01:06;14.40;99.90
15765;DHT22;7983;50.744;7.086;2023-11-19T08:03:34;14.50;99.90
15765;DHT22;7983;50.744;7.086;2023-11-19T08:06:00;14.50;99.90
15765;DHT22;7983;50.744;7.086;2023-11-19T08:08:26;14.50;99.90
15765;DHT22;7983;50.744;7.086;2023-11-19T08:10:52;14.50;99.90
15765;DHT22;7983;50.744;7.086;2023-11-19T08:13:18;14.60;99.90
15765;DHT22;7983;50.744;7.086;2023-11-19T08:15:45;14.60;99.90
15765;DHT22;7983;50.744;7.086;2023-11-19T08:18:11;14.70;99.90
15765;DHT22;7983;50.744;7.086;2023-11-19T08:20:37;14.70;99.90
15765;DHT22;7983;50.744;7.086;2023-11-19T08:23:03;14.70;99.90
15765;DHT22;7983;50.744;7.086;2023-11-19T08:25:31;14.70;99.90
15765;DHT22;7983;50.744;7.086;2023-11-19T08:27:59;14.70;99.90
15765;DHT22;7983;50.744;7.086;2023-11-19T08:30:25;14.80;99.90
15765;DHT22;7983;50.744;7.086;2023-11-19T08:32:55;14.80;99.90
15765;DHT22;7983;50.744;7.086;2023-11-19T08:35:24;14.80;99.90
15765;DHT22;7983;50.744;7.086;2023-11-19T08:37:49;14.80;99.90
15765;DHT22;7983;50.744;7.086;2023-11-19T08:40:17;14.80;99.90
15765;DHT22;7983;50.744;7.086;2023-11-19T08:42:43;14.80;99.90
15765;DHT22;7983;50.744;7.086;2023-11-19T08:45:13;14.90;99.90
15765;DHT22;7983;50.744;7.086;2023-11-19T08:47:39;14.90;99.90
15765;DHT22;7983;50.744;7.086;2023-11-19T08:50:07;14.90;99.90
15765;DHT22;7983;50.744;7.086;2023-11-19T08:52:34;15.00;99.90
15765;DHT22;7983;50.744;7.086;2023-11-19T08:55:02;15.20;99.90
15765;DHT22;7983;50.744;7.086;2023-11-19T08:57:28;15.30;99.90
15765;DHT22;7983;50.744;7.086;2023-11-19T08:59:56;15.50;99.90
15765;DHT22;7983;50.744;7.086;2023-11-19T09:02:26;15.60;99.90
15765;DHT22;7983;50.744;7.086;2023-11-19T09:04:52;15.60;99.90
15765;DHT22;7983;50.744;7.086;2023-11-19T09:07:17;15.60;99.90
15765;DHT22;7983;50.744;7.086;2023-11-19T09:09:43;15.50;99.90
15765;DHT22;7983;50.744;7.086;2023-11-19T09:12:09;15.60;99.90
15765;DHT22;7983;50.744;7.086;2023-11-19T09:14:34;15.80;99.90
15765;DHT22;7983;50.744;7.086;2023-11-19T09:17:00;16.10;99.90
15765;DHT22;7983;50.744;7.086;2023-11-19T09:19:32;16.20;99.90
15765;DHT22;7983;50.744;7.086;2023-11-19T09:21:58;16.30;99.90
15765;DHT22;7983;50.744;7.086;2023-11-19T09:24:26;16.40;99.90
15765;DHT22;7983;50.744;7.086;2023-11-19T09:26:51;16.40;99.90
15765;DHT22;7983;50.744;7.086;2023-11-19T09:29:17;16.30;99.90
15765;DHT22;7983;50.744;7.086;2023-11-19T09:31:45;16.20;99.90
15765;DHT22;7983;50.744;7.086;2023-11-19T09:34:11;16.10;99.90
15765;DHT22;7983;50.744;7.086;2023-11-19T09:36:36;16.00;99.90
15765;DHT22;7983;50.744;7.086;2023-11-19T09:39:02;16.00;99.90
15765;DHT22;7983;50.744;7.086;2023-11-19T09:41:30;16.00;99.90
15765;DHT22;7983;50.744;7.086;2023-11-19T09:43:56;16.10;99.90
15765;DHT22;7983;50.744;7.086;2023-11-19T09:46:22;16.20;99.90
15765;DHT22;7983;50.744;7.086;2023-11-19T09:48:52;16.30;99.90
15765;DHT22;7983;50.744;7.086;2023-11-19T09:51:20;16.40;99.90
15765;DHT22;7983;50.744;7.086;2023-11-19T09:53:47;16.50;99.90
15765;DHT22;7983;50.744;7.086;2023-11-19T09:56:14;16.50;99.90
15765;DHT22;7983;50.744;7.086;2023-11-19T09:58:44;16.60;99.90
15765;DHT22;7983;50.744;7.086;2023-11-19T10:01:10;16.70;99.90
15765;DHT22;7983;50.744;7.086;2023-11-19T10:03:38;16.80;99.90
15765;DHT22;7983;50.744;7.086;2023-11-19T10:06:10;16.90;99.90
15765;DHT22;7983;50.744;7.086;2023-11-19T10:08:39;16.90;99.90
15765;DHT22;7983;50.744;7.086;2023-11-19T10:11:09;16.90;99.90
15765;DHT22;7983;50.744;7.086;2023-11-19T10:13:37;16.90;99.90
15765;DHT22;7983;50.744;7.086;2023-11-19T10:16:10;17.00;99.90
15765;DHT22;7983;50.744;7.086;2023-11-19T10:18:48;17.00;99.90
15765;DHT22;7983;50.744;7.086;2023-11-19T10:21:18;17.00;99.90
15765;DHT22;7983;50.744;7.086;2023-11-19T10:23:56;17.10;99.90
15765;DHT22;7983;50.744;7.086;2023-11-19T10:26:30;17.10;99.90
15765;DHT22;7983;50.744;7.086;2023-11-19T10:28:56;17.00;99.90
15765;DHT22;7983;50.744;7.086;2023-11-19T10:31:24;17.10;99.90
15765;DHT22;7983;50.744;7.086;2023-11-19T10:33:51;17.10;99.90
15765;DHT22;7983;50.744;7.086;2023-11-19T10:36:18;17.10;99.90
15765;DHT22;7983;50.744;7.086;2023-11-19T10:38:55;17.10;99.90
15765;DHT22;7983;50.744;7.086;2023-11-19T10:41:31;17.10;99.90
15765;DHT22;7983;50.744;7.086;2023-11-19T10:43:59;17.20;99.90
15765;DHT22;7983;50.744;7.086;2023-11-19T10:46:41;17.20;99.90
15765;DHT22;7983;50.744;7.086;2023-11-19T10:49:08;17.20;99.90
15765;DHT22;7983;50.744;7.086;2023-11-19T10:51:36;17.20;99.90
15765;DHT22;7983;50.744;7.086;2023-11-19T10:54:06;17.20;99.90
15765;DHT22;7983;50.744;7.086;2023-11-19T10:56:33;17.10;99.90
15765;DHT22;7983;50.744;7.086;2023-11-19T10:58:59;17.10;99.90
15765;DHT22;7983;50.744;7.086;2023-11-19T11:01:38;17.10;99.90
15765;DHT22;7983;50.744;7.086;2023-11-19T11:04:10;17.20;99.90
15765;DHT22;7983;50.744;7.086;2023-11-19T11:06:39;17.30;99.90
15765;DHT22;7983;50.744;7.086;2023-11-19T11:09:05;17.30;99.90
15765;DHT22;7983;50.744;7.086;2023-11-19T11:11:32;17.20;99.90
15765;DHT22;7983;50.744;7.086;2023-11-19T11:14:02;17.20;99.90
15765;DHT22;7983;50.744;7.086;2023-11-19T11:16:29;17.20;99.90
15765;DHT22;7983;50.744;7.086;2023-11-19T11:18:57;17.00;99.90
15765;DHT22;7983;50.744;7.086;2023-11-19T11:21:26;17.00;99.90
15765;DHT22;7983;50.744;7.086;2023-11-19T11:37:34;16.60;99.90
15765;DHT22;7983;50.744;7.086;2023-11-19T11:40:02;16.60;99.90
15765;DHT22;7983;50.744;7.086;2023-11-19T11:42:38;16.50;99.90
15765;DHT22;7983;50.744;7.086;2023-11-19T11:50:18;16.30;99.90
15765;DHT22;7983;50.744;7.086;2023-11-19T11:58:05;16.10;99.90
15765;DHT22;7983;50.744;7.086;2023-11-19T12:03:00;16.00;99.90
15765;DHT22;7983;50.744;7.086;2023-11-19T12:05:27;16.00;99.90
15765;DHT22;7983;50.744;7.086;2023-11-19T12:07:55;15.90;99.90
15765;DHT22;7983;50.744;7.086;2023-11-19T12:10:24;15.90;99.90
15765;DHT22;7983;50.744;7.086;2023-11-19T12:12:53;15.90;99.90
15765;DHT22;7983;50.744;7.086;2023-11-19T12:15:18;15.90;99.90
15765;DHT22;7983;50.744;7.086;2023-11-19T12:17:50;16.00;99.90
15765;DHT22;7983;50.744;7.086;2023-11-19T12:20:18;16.10;99.90
15765;DHT22;7983;50.744;7.086;2023-11-19T12:22:48;16.20;99.90
15765;DHT22;7983;50.744;7.086;2023-11-19T12:25:16;16.10;99.90
15765;DHT22;7983;50.744;7.086;2023-11-19T12:27:51;16.10;99.90
15765;DHT22;7983;50.744;7.086;2023-11-19T12:32:55;16.10;99.90
15765;DHT22;7983;50.744;7.086;2023-11-19T12:35:21;16.10;99.90
15765;DHT22;7983;50.744;7.086;2023-11-19T12:37:50;16.10;99.90
15765;DHT22;7983;50.744;7.086;2023-11-19T12:40:23;16.10;99.90
15765;DHT22;7983;50.744;7.086;2023-11-19T12:42:50;16.10;99.90
15765;DHT22;7983;50.744;7.086;2023-11-19T12:45:19;16.10;99.90
15765;DHT22;7983;50.744;7.086;2023-11-19T12:47:46;16.10;99.90
15765;DHT22;7983;50.744;7.086;2023-11-19T12:50:18;16.10;99.90
15765;DHT22;7983;50.744;7.086;2023-11-19T12:52:55;16.10;99.90
15765;DHT22;7983;50.744;7.086;2023-11-19T12:55:27;16.10;99.90
15765;DHT22;7983;50.744;7.086;2023-11-19T12:57:56;16.10;99.90
15765;DHT22;7983;50.744;7.086;2023-11-19T13:00:28;16.10;99.90
15765;DHT22;7983;50.744;7.086;2023-11-19T13:02:56;16.00;99.90
15765;DHT22;7983;50.744;7.086;2023-11-19T13:05:32;16.10;99.90
15765;DHT22;7983;50.744;7.086;2023-11-19T13:08:08;16.10;99.90
15765;DHT22;7983;50.744;7.086;2023-11-19T13:10:52;16.00;99.90
15765;DHT22;7983;50.744;7.086;2023-11-19T13:13:19;16.00;99.90
15765;DHT22;7983;50.744;7.086;2023-11-19T13:15:45;15.90;99.90
15765;DHT22;7983;50.744;7.086;2023-11-19T13:18:12;15.80;99.90
15765;DHT22;7983;50.744;7.086;2023-11-19T13:20:40;15.80;99.90
15765;DHT22;7983;50.744;7.086;2023-11-19T13:23:08;15.80;99.90
15765;DHT22;7983;50.744;7.086;2023-11-19T13:25:33;15.90;99.90
15765;DHT22;7983;50.744;7.086;2023-11-19T13:28:04;16.00;99.90
15765;DHT22;7983;50.744;7.086;2023-11-19T13:30:31;16.00;99.90
15765;DHT22;7983;50.744;7.086;2023-11-19T13:32:57;16.10;99.90
15765;DHT22;7983;50.744;7.086;2023-11-19T13:35:22;16.20;99.90
15765;DHT22;7983;50.744;7.086;2023-11-19T13:37:50;16.20;99.90
15765;DHT22;7983;50.744;7.086;2023-11-19T13:40:17;16.20;99.90
15765;DHT22;7983;50.744;7.086;2023-11-19T13:42:47;16.30;99.90
15765;DHT22;7983;50.744;7.086;2023-11-19T13:45:16;16.30;99.90
15765;DHT22;7983;50.744;7.086;2023-11-19T13:47:46;16.40;99.90
15765;DHT22;7983;50.744;7.086;2023-11-19T13:50:15;16.40;99.90
15765;DHT22;7983;50.744;7.086;2023-11-19T13:52:46;16.40;99.90
15765;DHT22;7983;50.744;7.086;2023-11-19T13:55:13;16.40;99.90
15765;DHT22;7983;50.744;7.086;2023-11-19T13:57:42;16.50;99.90
15765;DHT22;7983;50.744;7.086;2023-11-19T14:00:10;16.60;99.90
15765;DHT22;7983;50.744;7.086;2023-11-19T14:02:42;16.70;99.90
15765;DHT22;7983;50.744;7.086;2023-11-19T14:05:11;16.80;99.90
15765;DHT22;7983;50.744;7.086;2023-11-19T14:07:37;16.80;99.90
15765;DHT22;7983;50.744;7.086;2023-11-19T14:10:06;16.90;99.90
15765;DHT22;7983;50.744;7.086;2023-11-19T14:12:34;16.90;99.90
15765;DHT22;7983;50.744;7.086;2023-11-19T14:15:02;16.90;99.90
15765;DHT22;7983;50.744;7.086;2023-11-19T14:17:27;16.90;99.90
15765;DHT22;7983;50.744;7.086;2023-11-19T14:19:55;17.00;99.90
15765;DHT22;7983;50.744;7.086;2023-11-19T14:22:21;17.00;99.90
15765;DHT22;7983;50.744;7.086;2023-11-19T14:24:49;17.00;99.90
15765;DHT22;7983;50.744;7.086;2023-11-19T14:27:15;17.00;99.90
15765;DHT22;7983;50.744;7.086;2023-11-19T14:29:42;17.00;99.90
15765;DHT22;7983;50.744;7.086;2023-11-19T14:32:08;17.00;99.90
15765;DHT22;7983;50.744;7.086;2023-11-19T14:34:34;16.90;99.90
15765;DHT22;7983;50.744;7.086;2023-11-19T14:37:04;16.80;99.90
15765;DHT22;7983;50.744;7.086;2023-11-19T14:39:32;16.80;99.90
15765;DHT22;7983;50.744;7.086;2023-11-19T14:42:00;16.70;99.90
15765;DHT22;7983;50.744;7.086;2023-11-19T14:44:30;16.70;99.90
15765;DHT22;7983;50.744;7.086;2023-11-19T14:46:55;16.60;99.90
15765;DHT22;7983;50.744;7.086;2023-11-19T14:49:24;16.60;99.90
15765;DHT22;7983;50.744;7.086;2023-11-19T14:51:50;16.50;99.90
15765;DHT22;7983;50.744;7.086;2023-11-19T14:54:18;16.40;99.90
15765;DHT22;7983;50.744;7.086;2023-11-19T14:56:44;16.40;99.90
15765;DHT22;7983;50.744;7.086;2023-11-19T14:59:10;16.30;99.90
15765;DHT22;7983;50.744;7.086;2023-11-19T15:01:40;16.20;99.90
15765;DHT22;7983;50.744;7.086;2023-11-19T15:04:13;16.20;99.90
15765;DHT22;7983;50.744;7.086;2023-11-19T15:06:39;16.10;99.90
15765;DHT22;7983;50.744;7.086;2023-11-19T15:09:09;16.10;99.90
15765;DHT22;7983;50.744;7.086;2023-11-19T15:11:35;16.00;99.90
15765;DHT22;7983;50.744;7.086;2023-11-19T15:14:01;16.00;99.90
15765;DHT22;7983;50.744;7.086;2023-11-19T15:16:29;15.90;99.90
15765;DHT22;7983;50.744;7.086;2023-11-19T15:19:00;15.90;99.90
15765;DHT22;7983;50.744;7.086;2023-11-19T15:21:29;15.80;99.90
15765;DHT22;7983;50.744;7.086;2023-11-19T15:23:55;15.80;99.90
15765;DHT22;7983;50.744;7.086;2023-11-19T15:26:24;15.70;99.90
15765;DHT22;7983;50.744;7.086;2023-11-19T15:28:52;15.70;99.90
15765;DHT22;7983;50.744;7.086;2023-11-19T15:31:22;15.70;99.90
15765;DHT22;7983;50.744;7.086;2023-11-19T15:33:50;15.60;99.90
15765;DHT22;7983;50.744;7.086;2023-11-19T15:36:16;15.50;99.90
15765;DHT22;7983;50.744;7.086;2023-11-19T15:38:46;15.50;99.90
15765;DHT22;7983;50.744;7.086;2023-11-19T15:41:11;15.50;99.90
15765;DHT22;7983;50.744;7.086;2023-11-19T15:43:37;15.50;99.90
15765;DHT22;7983;50.744;7.086;2023-11-19T15:46:12;15.40;99.90
15765;DHT22;7983;50.744;7.086;2023-11-19T15:48:37;15.40;99.90
15765;DHT22;7983;50.744;7.086;2023-11-19T15:51:03;15.30;99.90
15765;DHT22;7983;50.744;7.086;2023-11-19T15:53:29;15.30;99.90
15765;DHT22;7983;50.744;7.086;2023-11-19T15:55:59;15.30;99.90
15765;DHT22;7983;50.744;7.086;2023-11-19T15:58:27;15.20;99.90
15765;DHT22;7983;50.744;7.086;2023-11-19T16:00:53;15.20;99.90
15765;DHT22;7983;50.744;7.086;2023-11-19T16:03:19;15.20;99.90
15765;DHT22;7983;50.744;7.086;2023-11-19T16:05:44;15.20;99.90
15765;DHT22;7983;50.744;7.086;2023-11-19T16:08:10;15.10;99.90
15765;DHT22;7983;50.744;7.086;2023-11-19T16:10:37;15.10;99.90
15765;DHT22;7983;50.744;7.086;2023-11-19T16:13:08;15.10;99.90
15765;DHT22;7983;50.744;7.086;2023-11-19T16:15:34;15.00;99.90
15765;DHT22;7983;50.744;7.086;2023-11-19T16:18:02;15.00;99.90
15765;DHT22;7983;50.744;7.086;2023-11-19T16:20:31;14.90;99.90